Back to top

Rock Springs, WY weather

Rock Springs-Sweetwater County Airport, Rock Springs, WY: 12/11/2019 16:54
Visibility10 statute mileslots of clouds
View 7-Day Forecast
Area Summary
Sky/CloudsSolid Overcast at 4500ft
Weather [last 24 hours]None
Pressure30.1 in.Hg (1019 hPa)
3-hour Pressure Tendency0.005905 in.Hg (0.2 hPa) Increasing, then steady, or increasing then increasing more slowly
Dew Point16 °F (-8.9 °C)
Relative Humidity62.8 %
Temperature27 °F (-2.8 °C)red thermometer
Wind Chill13.9 °F (-10 °C)
Reading TimeMinimum to Maximum Temperature
6-hr ending 12/11@16:5417.1 °F to 28 °F (-8.3 °C to -2.2 °C)
6-hr ending 12/11@10:549 °F to 17.1 °F (-12.8 °C to -8.3 °C)
6-hr ending 12/11@04:5412.9 °F to 21.9 °F (-10.6 °C to -5.6 °C)
6-hr ending 12/10@22:5419.9 °F to 26.1 °F (-6.7 °C to -3.3 °C)
24-hr ending 12/10@23:5418 °F to 27 °F (-7.8 °C to -2.8 °C)
Wind18.4 MPH (16 KT) green arrow pointing 247.5 degrees
Wind FromWest/Southwest (240 Degrees)
Twilight Begins07:00Sunshine Yesterday
Sunrise07:32N/A
Sunset16:48
Twilight Ends17:19
METARKRKS 112354Z AUTO 24016KT 10SM OVC045 M03/M09 A3010 RMK AO2 SLP243 T10281089 11022 21083 51002
Tags: